Orlando, Florida
Traffic Map
Current Weather Conditions
Orlando, Florida
Clear
Clear
76°
Feels Like: 76°
Wind Chill: 76° Ceiling: Unl
Heat Index: 76° Visibility: 10mi
Dew Point: 75° Wind: 6mph
Humidity: 97% Direction: 220° (SW)
Pressure: 29.97in Gusts: 0mph
Raw Report DataKORL 310653Z AUTO 22005KT 10SM CLR 24/24 A2997 RMK AO2 SLP150 T02440239
Traffic Incident Summary
Active as of:
Severity:
Category:
InformationThere was an issue retrieving the traffic information for this location. Please try a different location or try again shortly.
Advertisements
Track Severe Weather on mobile